sensor_id;sensor_type;location;lat;lon;timestamp;pressure;altitude;pressure_sealevel;temperature
20058;BMP180;10189;49.546;7.906;2023-11-21T00:01:37;97438.00;;;11.10
20058;BMP180;10189;49.546;7.906;2023-11-21T00:04:03;97439.00;;;11.10
20058;BMP180;10189;49.546;7.906;2023-11-21T00:06:29;97430.00;;;11.10
20058;BMP180;10189;49.546;7.906;2023-11-21T00:08:56;97427.00;;;11.10
20058;BMP180;10189;49.546;7.906;2023-11-21T00:11:22;97434.00;;;11.10
20058;BMP180;10189;49.546;7.906;2023-11-21T00:13:48;97437.00;;;11.20
20058;BMP180;10189;49.546;7.906;2023-11-21T00:16:14;97436.00;;;11.10
20058;BMP180;10189;49.546;7.906;2023-11-21T00:18:39;97432.00;;;11.10
20058;BMP180;10189;49.546;7.906;2023-11-21T00:21:06;97432.00;;;11.20
20058;BMP180;10189;49.546;7.906;2023-11-21T00:23:32;97426.00;;;11.20
20058;BMP180;10189;49.546;7.906;2023-11-21T00:25:57;97424.00;;;11.00
20058;BMP180;10189;49.546;7.906;2023-11-21T00:28:24;97412.00;;;11.20
20058;BMP180;10189;49.546;7.906;2023-11-21T00:30:50;97431.00;;;11.20
20058;BMP180;10189;49.546;7.906;2023-11-21T00:33:16;97428.00;;;11.20
20058;BMP180;10189;49.546;7.906;2023-11-21T00:35:42;97432.00;;;11.20
20058;BMP180;10189;49.546;7.906;2023-11-21T00:38:08;97438.00;;;11.10
20058;BMP180;10189;49.546;7.906;2023-11-21T00:40:37;97431.00;;;11.20
20058;BMP180;10189;49.546;7.906;2023-11-21T00:43:03;97427.00;;;11.20
20058;BMP180;10189;49.546;7.906;2023-11-21T00:45:29;97424.00;;;11.20
20058;BMP180;10189;49.546;7.906;2023-11-21T00:47:55;97424.00;;;11.20
20058;BMP180;10189;49.546;7.906;2023-11-21T00:50:22;97417.00;;;11.20
20058;BMP180;10189;49.546;7.906;2023-11-21T00:52:47;97428.00;;;11.20
20058;BMP180;10189;49.546;7.906;2023-11-21T00:55:13;97420.00;;;11.20
20058;BMP180;10189;49.546;7.906;2023-11-21T00:57:39;97424.00;;;11.10
20058;BMP180;10189;49.546;7.906;2023-11-21T01:00:06;97422.00;;;11.10
20058;BMP180;10189;49.546;7.906;2023-11-21T01:02:39;97423.00;;;11.20
20058;BMP180;10189;49.546;7.906;2023-11-21T01:05:05;97428.00;;;11.20
20058;BMP180;10189;49.546;7.906;2023-11-21T01:07:33;97427.00;;;11.20
20058;BMP180;10189;49.546;7.906;2023-11-21T01:09:59;97437.00;;;11.30
20058;BMP180;10189;49.546;7.906;2023-11-21T01:12:25;97438.00;;;11.20
20058;BMP180;10189;49.546;7.906;2023-11-21T01:14:51;97446.00;;;11.20
20058;BMP180;10189;49.546;7.906;2023-11-21T01:17:17;97450.00;;;11.20
20058;BMP180;10189;49.546;7.906;2023-11-21T01:19:44;97448.00;;;11.20
20058;BMP180;10189;49.546;7.906;2023-11-21T01:22:09;97451.00;;;11.20
20058;BMP180;10189;49.546;7.906;2023-11-21T01:24:37;97447.00;;;11.20
20058;BMP180;10189;49.546;7.906;2023-11-21T01:27:04;97430.00;;;11.20
20058;BMP180;10189;49.546;7.906;2023-11-21T01:29:30;97436.00;;;11.10
20058;BMP180;10189;49.546;7.906;2023-11-21T01:31:55;97437.00;;;11.20
20058;BMP180;10189;49.546;7.906;2023-11-21T01:34:23;97444.00;;;11.20
20058;BMP180;10189;49.546;7.906;2023-11-21T01:36:49;97441.00;;;11.10
20058;BMP180;10189;49.546;7.906;2023-11-21T01:39:15;97439.00;;;11.10
20058;BMP180;10189;49.546;7.906;2023-11-21T01:41:42;97443.00;;;11.10
20058;BMP180;10189;49.546;7.906;2023-11-21T01:44:09;97455.00;;;11.20
20058;BMP180;10189;49.546;7.906;2023-11-21T01:46:36;97449.00;;;11.20
20058;BMP180;10189;49.546;7.906;2023-11-21T01:49:03;97438.00;;;11.10
20058;BMP180;10189;49.546;7.906;2023-11-21T01:51:29;97437.00;;;11.20
20058;BMP180;10189;49.546;7.906;2023-11-21T01:53:57;97446.00;;;11.10
20058;BMP180;10189;49.546;7.906;2023-11-21T01:56:23;97452.00;;;11.20
20058;BMP180;10189;49.546;7.906;2023-11-21T01:58:49;97447.00;;;11.10
20058;BMP180;10189;49.546;7.906;2023-11-21T02:01:15;97440.00;;;11.10
20058;BMP180;10189;49.546;7.906;2023-11-21T02:03:41;97442.00;;;11.10
20058;BMP180;10189;49.546;7.906;2023-11-21T02:06:07;97453.00;;;11.00
20058;BMP180;10189;49.546;7.906;2023-11-21T02:08:34;97455.00;;;11.10
20058;BMP180;10189;49.546;7.906;2023-11-21T02:11:00;97462.00;;;11.10
20058;BMP180;10189;49.546;7.906;2023-11-21T02:13:25;97451.00;;;11.20
20058;BMP180;10189;49.546;7.906;2023-11-21T02:15:51;97456.00;;;11.20
20058;BMP180;10189;49.546;7.906;2023-11-21T02:18:19;97454.00;;;11.20
20058;BMP180;10189;49.546;7.906;2023-11-21T02:20:46;97459.00;;;11.30
20058;BMP180;10189;49.546;7.906;2023-11-21T02:23:12;97450.00;;;11.30
20058;BMP180;10189;49.546;7.906;2023-11-21T02:25:38;97449.00;;;11.30
20058;BMP180;10189;49.546;7.906;2023-11-21T02:28:04;97445.00;;;11.20
20058;BMP180;10189;49.546;7.906;2023-11-21T02:30:32;97447.00;;;11.10
20058;BMP180;10189;49.546;7.906;2023-11-21T02:32:58;97451.00;;;11.20
20058;BMP180;10189;49.546;7.906;2023-11-21T02:35:25;97452.00;;;11.30
20058;BMP180;10189;49.546;7.906;2023-11-21T02:37:54;97447.00;;;11.30
20058;BMP180;10189;49.546;7.906;2023-11-21T02:40:20;97455.00;;;11.20
20058;BMP180;10189;49.546;7.906;2023-11-21T02:42:47;97449.00;;;11.20
20058;BMP180;10189;49.546;7.906;2023-11-21T02:45:14;97461.00;;;11.20
20058;BMP180;10189;49.546;7.906;2023-11-21T02:47:43;97454.00;;;11.20
20058;BMP180;10189;49.546;7.906;2023-11-21T02:50:09;97455.00;;;11.20
20058;BMP180;10189;49.546;7.906;2023-11-21T02:52:35;97460.00;;;11.30
20058;BMP180;10189;49.546;7.906;2023-11-21T02:55:03;97455.00;;;11.40
20058;BMP180;10189;49.546;7.906;2023-11-21T02:57:29;97457.00;;;11.30
20058;BMP180;10189;49.546;7.906;2023-11-21T02:59:55;97453.00;;;11.20
20058;BMP180;10189;49.546;7.906;2023-11-21T03:02:22;97460.00;;;11.20
20058;BMP180;10189;49.546;7.906;2023-11-21T03:04:48;97460.00;;;11.20
20058;BMP180;10189;49.546;7.906;2023-11-21T03:07:16;97461.00;;;11.20
20058;BMP180;10189;49.546;7.906;2023-11-21T03:09:42;97462.00;;;11.20
20058;BMP180;10189;49.546;7.906;2023-11-21T03:12:09;97458.00;;;11.40
20058;BMP180;10189;49.546;7.906;2023-11-21T03:14:35;97454.00;;;11.30
20058;BMP180;10189;49.546;7.906;2023-11-21T03:17:01;97451.00;;;11.40
20058;BMP180;10189;49.546;7.906;2023-11-21T03:19:27;97456.00;;;11.40
20058;BMP180;10189;49.546;7.906;2023-11-21T03:21:54;97461.00;;;11.40
20058;BMP180;10189;49.546;7.906;2023-11-21T03:24:19;97461.00;;;11.30
20058;BMP180;10189;49.546;7.906;2023-11-21T03:26:46;97459.00;;;11.30
20058;BMP180;10189;49.546;7.906;2023-11-21T03:29:17;97455.00;;;11.30
20058;BMP180;10189;49.546;7.906;2023-11-21T03:31:43;97461.00;;;11.40
20058;BMP180;10189;49.546;7.906;2023-11-21T03:34:26;97478.00;;;11.30
20058;BMP180;10189;49.546;7.906;2023-11-21T03:36:54;97480.00;;;11.40
20058;BMP180;10189;49.546;7.906;2023-11-21T03:39:21;97480.00;;;11.40
20058;BMP180;10189;49.546;7.906;2023-11-21T03:41:49;97481.00;;;11.40
20058;BMP180;10189;49.546;7.906;2023-11-21T03:44:15;97486.00;;;11.30
20058;BMP180;10189;49.546;7.906;2023-11-21T03:46:41;97480.00;;;11.20
20058;BMP180;10189;49.546;7.906;2023-11-21T03:49:10;97483.00;;;11.20
20058;BMP180;10189;49.546;7.906;2023-11-21T03:51:37;97486.00;;;11.20
20058;BMP180;10189;49.546;7.906;2023-11-21T03:54:03;97489.00;;;11.10
20058;BMP180;10189;49.546;7.906;2023-11-21T03:56:30;97495.00;;;11.10
20058;BMP180;10189;49.546;7.906;2023-11-21T03:58:55;97491.00;;;11.10
20058;BMP180;10189;49.546;7.906;2023-11-21T04:01:22;97497.00;;;11.10
20058;BMP180;10189;49.546;7.906;2023-11-21T04:03:51;97505.00;;;11.10
20058;BMP180;10189;49.546;7.906;2023-11-21T04:06:18;97498.00;;;11.10
20058;BMP180;10189;49.546;7.906;2023-11-21T04:08:45;97510.00;;;11.00
20058;BMP180;10189;49.546;7.906;2023-11-21T04:11:11;97511.00;;;11.10
20058;BMP180;10189;49.546;7.906;2023-11-21T04:13:39;97497.00;;;11.00
20058;BMP180;10189;49.546;7.906;2023-11-21T04:16:07;97514.00;;;11.10
20058;BMP180;10189;49.546;7.906;2023-11-21T04:18:37;97513.00;;;10.90
20058;BMP180;10189;49.546;7.906;2023-11-21T04:21:05;97519.00;;;10.90
20058;BMP180;10189;49.546;7.906;2023-11-21T04:23:31;97526.00;;;10.90
20058;BMP180;10189;49.546;7.906;2023-11-21T04:25:58;97524.00;;;10.80
20058;BMP180;10189;49.546;7.906;2023-11-21T04:28:24;97523.00;;;10.80
20058;BMP180;10189;49.546;7.906;2023-11-21T04:30:51;97529.00;;;10.80
20058;BMP180;10189;49.546;7.906;2023-11-21T04:33:17;97527.00;;;10.80
20058;BMP180;10189;49.546;7.906;2023-11-21T04:35:43;97532.00;;;10.90
20058;BMP180;10189;49.546;7.906;2023-11-21T04:38:09;97537.00;;;10.90
20058;BMP180;10189;49.546;7.906;2023-11-21T04:40:35;97537.00;;;10.90
20058;BMP180;10189;49.546;7.906;2023-11-21T04:43:00;97536.00;;;10.80
20058;BMP180;10189;49.546;7.906;2023-11-21T04:45:27;97538.00;;;10.80
20058;BMP180;10189;49.546;7.906;2023-11-21T04:47:53;97533.00;;;10.80
20058;BMP180;10189;49.546;7.906;2023-11-21T04:50:18;97535.00;;;10.80
20058;BMP180;10189;49.546;7.906;2023-11-21T04:52:44;97541.00;;;10.80
20058;BMP180;10189;49.546;7.906;2023-11-21T04:55:10;97541.00;;;10.70
20058;BMP180;10189;49.546;7.906;2023-11-21T04:57:37;97556.00;;;10.70
20058;BMP180;10189;49.546;7.906;2023-11-21T05:00:03;97557.00;;;10.80
20058;BMP180;10189;49.546;7.906;2023-11-21T05:02:32;97558.00;;;10.80
20058;BMP180;10189;49.546;7.906;2023-11-21T05:05:00;97562.00;;;10.80
20058;BMP180;10189;49.546;7.906;2023-11-21T05:07:26;97567.00;;;10.80
20058;BMP180;10189;49.546;7.906;2023-11-21T05:09:55;97579.00;;;10.80
20058;BMP180;10189;49.546;7.906;2023-11-21T05:12:22;97576.00;;;10.90
20058;BMP180;10189;49.546;7.906;2023-11-21T05:14:51;97571.00;;;10.80
20058;BMP180;10189;49.546;7.906;2023-11-21T05:17:17;97583.00;;;10.80
20058;BMP180;10189;49.546;7.906;2023-11-21T05:19:43;97579.00;;;10.90
20058;BMP180;10189;49.546;7.906;2023-11-21T05:22:11;97585.00;;;10.90
20058;BMP180;10189;49.546;7.906;2023-11-21T05:24:38;97588.00;;;10.90
20058;BMP180;10189;49.546;7.906;2023-11-21T05:27:06;97597.00;;;10.80
20058;BMP180;10189;49.546;7.906;2023-11-21T05:29:35;97590.00;;;10.70
20058;BMP180;10189;49.546;7.906;2023-11-21T05:32:00;97609.00;;;10.70
20058;BMP180;10189;49.546;7.906;2023-11-21T05:34:26;97606.00;;;10.70
20058;BMP180;10189;49.546;7.906;2023-11-21T05:36:52;97607.00;;;10.80
20058;BMP180;10189;49.546;7.906;2023-11-21T05:39:19;97607.00;;;10.70
20058;BMP180;10189;49.546;7.906;2023-11-21T05:41:45;97614.00;;;10.80
20058;BMP180;10189;49.546;7.906;2023-11-21T05:44:11;97616.00;;;10.70
20058;BMP180;10189;49.546;7.906;2023-11-21T05:46:37;97618.00;;;10.70
20058;BMP180;10189;49.546;7.906;2023-11-21T05:49:03;97621.00;;;10.60
20058;BMP180;10189;49.546;7.906;2023-11-21T05:51:29;97629.00;;;10.60
20058;BMP180;10189;49.546;7.906;2023-11-21T05:53:55;97620.00;;;10.60
20058;BMP180;10189;49.546;7.906;2023-11-21T05:56:21;97624.00;;;10.60
20058;BMP180;10189;49.546;7.906;2023-11-21T05:58:46;97631.00;;;10.60
20058;BMP180;10189;49.546;7.906;2023-11-21T06:01:12;97638.00;;;10.50
20058;BMP180;10189;49.546;7.906;2023-11-21T06:03:39;97635.00;;;10.50
20058;BMP180;10189;49.546;7.906;2023-11-21T06:06:05;97639.00;;;10.60
20058;BMP180;10189;49.546;7.906;2023-11-21T06:08:31;97639.00;;;10.50
20058;BMP180;10189;49.546;7.906;2023-11-21T06:10:56;97636.00;;;10.60
20058;BMP180;10189;49.546;7.906;2023-11-21T06:13:22;97637.00;;;10.60
20058;BMP180;10189;49.546;7.906;2023-11-21T06:15:50;97649.00;;;10.60
20058;BMP180;10189;49.546;7.906;2023-11-21T06:18:17;97644.00;;;10.60
20058;BMP180;10189;49.546;7.906;2023-11-21T06:20:46;97652.00;;;10.70
20058;BMP180;10189;49.546;7.906;2023-11-21T06:23:12;97657.00;;;10.70
20058;BMP180;10189;49.546;7.906;2023-11-21T06:25:38;97661.00;;;10.80
20058;BMP180;10189;49.546;7.906;2023-11-21T06:28:04;97661.00;;;10.70
20058;BMP180;10189;49.546;7.906;2023-11-21T06:30:30;97667.00;;;10.80
20058;BMP180;10189;49.546;7.906;2023-11-21T06:32:56;97668.00;;;10.80
20058;BMP180;10189;49.546;7.906;2023-11-21T06:35:22;97660.00;;;10.80
20058;BMP180;10189;49.546;7.906;2023-11-21T06:37:48;97668.00;;;10.80
20058;BMP180;10189;49.546;7.906;2023-11-21T06:40:14;97674.00;;;10.70
20058;BMP180;10189;49.546;7.906;2023-11-21T06:42:47;97671.00;;;10.80
20058;BMP180;10189;49.546;7.906;2023-11-21T06:45:13;97676.00;;;10.80
20058;BMP180;10189;49.546;7.906;2023-11-21T06:47:40;97676.00;;;10.80
20058;BMP180;10189;49.546;7.906;2023-11-21T06:50:06;97682.00;;;10.70
20058;BMP180;10189;49.546;7.906;2023-11-21T06:52:32;97678.00;;;10.70
20058;BMP180;10189;49.546;7.906;2023-11-21T06:54:58;97692.00;;;10.60
20058;BMP180;10189;49.546;7.906;2023-11-21T06:57:25;97682.00;;;10.60
20058;BMP180;10189;49.546;7.906;2023-11-21T06:59:51;97692.00;;;10.60
20058;BMP180;10189;49.546;7.906;2023-11-21T07:02:17;97714.00;;;10.50
20058;BMP180;10189;49.546;7.906;2023-11-21T07:04:45;97714.00;;;10.50
20058;BMP180;10189;49.546;7.906;2023-11-21T07:07:12;97718.00;;;10.50
20058;BMP180;10189;49.546;7.906;2023-11-21T07:09:39;97723.00;;;10.50
20058;BMP180;10189;49.546;7.906;2023-11-21T07:12:06;97730.00;;;10.50
20058;BMP180;10189;49.546;7.906;2023-11-21T07:14:36;97740.00;;;10.60
20058;BMP180;10189;49.546;7.906;2023-11-21T07:17:02;97735.00;;;10.60
20058;BMP180;10189;49.546;7.906;2023-11-21T07:19:28;97730.00;;;10.70
20058;BMP180;10189;49.546;7.906;2023-11-21T07:21:55;97736.00;;;10.70
20058;BMP180;10189;49.546;7.906;2023-11-21T07:24:21;97746.00;;;10.70
20058;BMP180;10189;49.546;7.906;2023-11-21T07:26:48;97740.00;;;10.70
20058;BMP180;10189;49.546;7.906;2023-11-21T07:29:14;97740.00;;;10.80
20058;BMP180;10189;49.546;7.906;2023-11-21T07:31:40;97740.00;;;10.80
20058;BMP180;10189;49.546;7.906;2023-11-21T07:34:07;97740.00;;;10.70
20058;BMP180;10189;49.546;7.906;2023-11-21T07:36:34;97750.00;;;10.80
20058;BMP180;10189;49.546;7.906;2023-11-21T07:39:00;97737.00;;;10.80
20058;BMP180;10189;49.546;7.906;2023-11-21T07:41:27;97744.00;;;11.00
20058;BMP180;10189;49.546;7.906;2023-11-21T07:43:55;97744.00;;;11.10
20058;BMP180;10189;49.546;7.906;2023-11-21T07:46:21;97750.00;;;11.10
20058;BMP180;10189;49.546;7.906;2023-11-21T07:48:48;97754.00;;;11.30
20058;BMP180;10189;49.546;7.906;2023-11-21T07:51:13;97758.00;;;11.20
20058;BMP180;10189;49.546;7.906;2023-11-21T07:53:39;97773.00;;;11.20
20058;BMP180;10189;49.546;7.906;2023-11-21T07:56:08;97777.00;;;11.20
20058;BMP180;10189;49.546;7.906;2023-11-21T07:58:35;97788.00;;;11.20
20058;BMP180;10189;49.546;7.906;2023-11-21T08:01:02;97784.00;;;11.20
20058;BMP180;10189;49.546;7.906;2023-11-21T08:03:28;97791.00;;;11.30
20058;BMP180;10189;49.546;7.906;2023-11-21T08:05:56;97794.00;;;11.30
20058;BMP180;10189;49.546;7.906;2023-11-21T08:08:23;97796.00;;;11.30
20058;BMP180;10189;49.546;7.906;2023-11-21T08:10:50;97793.00;;;11.40
20058;BMP180;10189;49.546;7.906;2023-11-21T08:13:27;97800.00;;;11.30
20058;BMP180;10189;49.546;7.906;2023-11-21T08:15:58;97802.00;;;11.30
20058;BMP180;10189;49.546;7.906;2023-11-21T08:18:28;97801.00;;;11.50
20058;BMP180;10189;49.546;7.906;2023-11-21T08:20:57;97802.00;;;11.30
20058;BMP180;10189;49.546;7.906;2023-11-21T08:23:23;97799.00;;;11.40
20058;BMP180;10189;49.546;7.906;2023-11-21T08:25:53;97798.00;;;11.50
20058;BMP180;10189;49.546;7.906;2023-11-21T08:28:19;97805.00;;;11.50
20058;BMP180;10189;49.546;7.906;2023-11-21T08:30:47;97816.00;;;11.40
20058;BMP180;10189;49.546;7.906;2023-11-21T08:33:14;97810.00;;;11.30
20058;BMP180;10189;49.546;7.906;2023-11-21T08:35:39;97812.00;;;11.40
20058;BMP180;10189;49.546;7.906;2023-11-21T08:38:05;97814.00;;;11.30
20058;BMP180;10189;49.546;7.906;2023-11-21T08:40:31;97819.00;;;11.20
20058;BMP180;10189;49.546;7.906;2023-11-21T08:42:57;97817.00;;;11.30
20058;BMP180;10189;49.546;7.906;2023-11-21T08:45:25;97821.00;;;11.20
20058;BMP180;10189;49.546;7.906;2023-11-21T08:47:54;97823.00;;;11.20
20058;BMP180;10189;49.546;7.906;2023-11-21T08:50:20;97825.00;;;11.20
20058;BMP180;10189;49.546;7.906;2023-11-21T08:52:47;97830.00;;;11.20
20058;BMP180;10189;49.546;7.906;2023-11-21T08:55:13;97829.00;;;11.20
20058;BMP180;10189;49.546;7.906;2023-11-21T08:57:40;97843.00;;;11.30
20058;BMP180;10189;49.546;7.906;2023-11-21T09:00:08;97844.00;;;11.40
20058;BMP180;10189;49.546;7.906;2023-11-21T09:02:40;97843.00;;;11.50
20058;BMP180;10189;49.546;7.906;2023-11-21T09:05:09;97846.00;;;11.40
20058;BMP180;10189;49.546;7.906;2023-11-21T09:07:39;97846.00;;;11.40
20058;BMP180;10189;49.546;7.906;2023-11-21T09:10:06;97847.00;;;11.40
20058;BMP180;10189;49.546;7.906;2023-11-21T09:12:33;97848.00;;;11.50
20058;BMP180;10189;49.546;7.906;2023-11-21T09:15:02;97848.00;;;11.40
20058;BMP180;10189;49.546;7.906;2023-11-21T09:17:30;97857.00;;;11.40
20058;BMP180;10189;49.546;7.906;2023-11-21T09:19:56;97861.00;;;11.40
20058;BMP180;10189;49.546;7.906;2023-11-21T09:22:23;97863.00;;;11.50
20058;BMP180;10189;49.546;7.906;2023-11-21T09:24:53;97869.00;;;11.40
20058;BMP180;10189;49.546;7.906;2023-11-21T09:27:19;97864.00;;;11.40
20058;BMP180;10189;49.546;7.906;2023-11-21T09:29:45;97878.00;;;11.40
20058;BMP180;10189;49.546;7.906;2023-11-21T09:32:13;97876.00;;;11.40
20058;BMP180;10189;49.546;7.906;2023-11-21T09:34:42;97874.00;;;11.50
20058;BMP180;10189;49.546;7.906;2023-11-21T09:37:08;97876.00;;;11.50
20058;BMP180;10189;49.546;7.906;2023-11-21T09:39:34;97882.00;;;11.50
20058;BMP180;10189;49.546;7.906;2023-11-21T09:42:15;97886.00;;;11.50
20058;BMP180;10189;49.546;7.906;2023-11-21T09:45:17;97883.00;;;11.60
20058;BMP180;10189;49.546;7.906;2023-11-21T09:47:46;97901.00;;;11.50
20058;BMP180;10189;49.546;7.906;2023-11-21T09:50:17;97896.00;;;11.50
20058;BMP180;10189;49.546;7.906;2023-11-21T09:53:19;97893.00;;;11.70
20058;BMP180;10189;49.546;7.906;2023-11-21T09:55:53;97902.00;;;11.60
20058;BMP180;10189;49.546;7.906;2023-11-21T09:58:20;97895.00;;;11.40
20058;BMP180;10189;49.546;7.906;2023-11-21T10:00:49;97893.00;;;11.40
20058;BMP180;10189;49.546;7.906;2023-11-21T10:03:15;97901.00;;;11.50
20058;BMP180;10189;49.546;7.906;2023-11-21T10:05:45;97902.00;;;11.60
20058;BMP180;10189;49.546;7.906;2023-11-21T10:08:12;97912.00;;;11.60
20058;BMP180;10189;49.546;7.906;2023-11-21T10:10:46;97911.00;;;11.80
20058;BMP180;10189;49.546;7.906;2023-11-21T10:13:15;97928.00;;;11.70
20058;BMP180;10189;49.546;7.906;2023-11-21T10:15:44;97919.00;;;11.70
20058;BMP180;10189;49.546;7.906;2023-11-21T10:18:15;97931.00;;;11.70
20058;BMP180;10189;49.546;7.906;2023-11-21T10:20:41;97932.00;;;11.60
20058;BMP180;10189;49.546;7.906;2023-11-21T10:23:08;97939.00;;;11.50
20058;BMP180;10189;49.546;7.906;2023-11-21T10:25:37;97938.00;;;11.30
20058;BMP180;10189;49.546;7.906;2023-11-21T10:28:04;97927.00;;;11.40
20058;BMP180;10189;49.546;7.906;2023-11-21T10:30:38;97953.00;;;11.30
20058;BMP180;10189;49.546;7.906;2023-11-21T10:33:06;97950.00;;;11.20
20058;BMP180;10189;49.546;7.906;2023-11-21T10:35:46;97958.00;;;11.10
20058;BMP180;10189;49.546;7.906;2023-11-21T10:38:21;97947.00;;;11.20
20058;BMP180;10189;49.546;7.906;2023-11-21T10:40:49;97960.00;;;11.10
20058;BMP180;10189;49.546;7.906;2023-11-21T10:43:17;97962.00;;;11.20
20058;BMP180;10189;49.546;7.906;2023-11-21T10:45:44;97949.00;;;11.20
20058;BMP180;10189;49.546;7.906;2023-11-21T10:48:13;97953.00;;;11.40
20058;BMP180;10189;49.546;7.906;2023-11-21T10:50:47;97958.00;;;11.40
20058;BMP180;10189;49.546;7.906;2023-11-21T10:53:13;97953.00;;;11.30
20058;BMP180;10189;49.546;7.906;2023-11-21T10:55:39;97953.00;;;11.40
20058;BMP180;10189;49.546;7.906;2023-11-21T10:58:05;97955.00;;;11.50
20058;BMP180;10189;49.546;7.906;2023-11-21T11:00:33;97964.00;;;11.60
20058;BMP180;10189;49.546;7.906;2023-11-21T11:02:59;97960.00;;;11.50
20058;BMP180;10189;49.546;7.906;2023-11-21T11:05:30;97951.00;;;11.60
20058;BMP180;10189;49.546;7.906;2023-11-21T11:08:11;97955.00;;;11.70
20058;BMP180;10189;49.546;7.906;2023-11-21T11:10:38;97954.00;;;11.80
20058;BMP180;10189;49.546;7.906;2023-11-21T11:13:06;97944.00;;;11.80
20058;BMP180;10189;49.546;7.906;2023-11-21T11:15:33;97941.00;;;11.90
20058;BMP180;10189;49.546;7.906;2023-11-21T11:17:59;97944.00;;;11.90
20058;BMP180;10189;49.546;7.906;2023-11-21T11:20:38;97941.00;;;12.00
20058;BMP180;10189;49.546;7.906;2023-11-21T11:29:32;97941.00;;;12.10
20058;BMP180;10189;49.546;7.906;2023-11-21T11:35:10;97936.00;;;12.40
20058;BMP180;10189;49.546;7.906;2023-11-21T11:37:43;97921.00;;;12.60
20058;BMP180;10189;49.546;7.906;2023-11-21T11:40:11;97924.00;;;12.70
20058;BMP180;10189;49.546;7.906;2023-11-21T11:42:37;97921.00;;;12.90
20058;BMP180;10189;49.546;7.906;2023-11-21T11:45:18;97927.00;;;13.10
20058;BMP180;10189;49.546;7.906;2023-11-21T11:47:48;97916.00;;;13.30
20058;BMP180;10189;49.546;7.906;2023-11-21T11:50:13;97920.00;;;13.30
20058;BMP180;10189;49.546;7.906;2023-11-21T11:52:55;97927.00;;;13.10
20058;BMP180;10189;49.546;7.906;2023-11-21T11:55:30;97927.00;;;13.20
20058;BMP180;10189;49.546;7.906;2023-11-21T11:57:56;97931.00;;;13.10
20058;BMP180;10189;49.546;7.906;2023-11-21T12:03:01;97927.00;;;13.00
20058;BMP180;10189;49.546;7.906;2023-11-21T12:05:31;97941.00;;;12.90
20058;BMP180;10189;49.546;7.906;2023-11-21T12:08:11;97922.00;;;12.80
20058;BMP180;10189;49.546;7.906;2023-11-21T12:10:39;97940.00;;;12.90
20058;BMP180;10189;49.546;7.906;2023-11-21T12:13:11;97935.00;;;12.90
20058;BMP180;10189;49.546;7.906;2023-11-21T12:15:39;97938.00;;;13.00
20058;BMP180;10189;49.546;7.906;2023-11-21T12:18:07;97926.00;;;13.00
20058;BMP180;10189;49.546;7.906;2023-11-21T12:20:33;97937.00;;;13.10
20058;BMP180;10189;49.546;7.906;2023-11-21T12:23:05;97937.00;;;13.00
20058;BMP180;10189;49.546;7.906;2023-11-21T12:25:32;97939.00;;;13.10
20058;BMP180;10189;49.546;7.906;2023-11-21T12:27:59;97938.00;;;13.10
20058;BMP180;10189;49.546;7.906;2023-11-21T12:30:29;97943.00;;;13.10
20058;BMP180;10189;49.546;7.906;2023-11-21T12:32:59;97953.00;;;13.00
20058;BMP180;10189;49.546;7.906;2023-11-21T12:35:34;97954.00;;;12.80
20058;BMP180;10189;49.546;7.906;2023-11-21T12:38:03;97956.00;;;12.90
20058;BMP180;10189;49.546;7.906;2023-11-21T12:40:29;97961.00;;;13.10
20058;BMP180;10189;49.546;7.906;2023-11-21T12:42:58;97960.00;;;13.30
20058;BMP180;10189;49.546;7.906;2023-11-21T12:45:29;97955.00;;;13.40
20058;BMP180;10189;49.546;7.906;2023-11-21T12:50:31;97957.00;;;13.70
20058;BMP180;10189;49.546;7.906;2023-11-21T12:53:12;97963.00;;;13.70
20058;BMP180;10189;49.546;7.906;2023-11-21T12:55:39;97959.00;;;13.80
20058;BMP180;10189;49.546;7.906;2023-11-21T12:58:09;97963.00;;;13.80
20058;BMP180;10189;49.546;7.906;2023-11-21T13:00:43;97963.00;;;13.50
20058;BMP180;10189;49.546;7.906;2023-11-21T13:03:12;97966.00;;;13.50
20058;BMP180;10189;49.546;7.906;2023-11-21T13:05:41;97963.00;;;13.50
20058;BMP180;10189;49.546;7.906;2023-11-21T13:08:12;97969.00;;;13.50
20058;BMP180;10189;49.546;7.906;2023-11-21T13:10:41;97965.00;;;13.40
20058;BMP180;10189;49.546;7.906;2023-11-21T13:13:12;97972.00;;;13.60
20058;BMP180;10189;49.546;7.906;2023-11-21T13:15:55;97964.00;;;13.60
20058;BMP180;10189;49.546;7.906;2023-11-21T13:18:23;97968.00;;;13.70
20058;BMP180;10189;49.546;7.906;2023-11-21T13:20:50;97971.00;;;13.70
20058;BMP180;10189;49.546;7.906;2023-11-21T13:23:16;97974.00;;;13.80
20058;BMP180;10189;49.546;7.906;2023-11-21T13:25:43;97978.00;;;13.80
20058;BMP180;10189;49.546;7.906;2023-11-21T13:28:11;97985.00;;;13.70
20058;BMP180;10189;49.546;7.906;2023-11-21T13:30:38;97982.00;;;13.50
20058;BMP180;10189;49.546;7.906;2023-11-21T13:33:07;97985.00;;;13.50
20058;BMP180;10189;49.546;7.906;2023-11-21T13:35:39;97986.00;;;13.50
20058;BMP180;10189;49.546;7.906;2023-11-21T13:38:09;98000.00;;;13.70
20058;BMP180;10189;49.546;7.906;2023-11-21T13:40:37;98001.00;;;13.70
20058;BMP180;10189;49.546;7.906;2023-11-21T13:43:13;98006.00;;;13.70
20058;BMP180;10189;49.546;7.906;2023-11-21T13:45:44;98006.00;;;13.80
20058;BMP180;10189;49.546;7.906;2023-11-21T13:48:11;98004.00;;;13.80
20058;BMP180;10189;49.546;7.906;2023-11-21T13:50:43;98007.00;;;13.70
20058;BMP180;10189;49.546;7.906;2023-11-21T13:53:27;98016.00;;;13.60
20058;BMP180;10189;49.546;7.906;2023-11-21T13:55:54;98027.00;;;13.30
20058;BMP180;10189;49.546;7.906;2023-11-21T13:58:21;98024.00;;;13.40
20058;BMP180;10189;49.546;7.906;2023-11-21T14:01:05;98035.00;;;13.30
20058;BMP180;10189;49.546;7.906;2023-11-21T14:03:38;98041.00;;;12.90
20058;BMP180;10189;49.546;7.906;2023-11-21T14:06:16;98047.00;;;12.70
20058;BMP180;10189;49.546;7.906;2023-11-21T14:08:49;98044.00;;;12.60
20058;BMP180;10189;49.546;7.906;2023-11-21T14:11:14;98050.00;;;12.40
20058;BMP180;10189;49.546;7.906;2023-11-21T14:13:43;98049.00;;;12.30
20058;BMP180;10189;49.546;7.906;2023-11-21T14:16:13;98044.00;;;12.20
20058;BMP180;10189;49.546;7.906;2023-11-21T14:18:40;98061.00;;;12.10
20058;BMP180;10189;49.546;7.906;2023-11-21T14:21:18;98058.00;;;12.00
20058;BMP180;10189;49.546;7.906;2023-11-21T14:23:44;98059.00;;;12.10
20058;BMP180;10189;49.546;7.906;2023-11-21T14:26:12;98056.00;;;12.00
20058;BMP180;10189;49.546;7.906;2023-11-21T14:28:42;98064.00;;;12.00